createdAt,value
2018-04-27T00:00:43.979Z,6.05
2018-04-27T00:01:46.491Z,6.55
2018-04-27T00:02:49.033Z,6.80
2018-04-27T00:03:51.555Z,6.70
2018-04-27T00:04:54.095Z,6.20
2018-04-27T00:05:57.412Z,6.82
2018-04-27T00:06:59.929Z,6.75
2018-04-27T00:08:02.457Z,6.50
2018-04-27T00:09:05.907Z,6.10
2018-04-27T00:10:09.197Z,5.90
2018-04-27T00:11:12.525Z,6.65
2018-04-27T00:12:15.104Z,6.97
2018-04-27T00:13:17.629Z,6.57
2018-04-27T00:14:20.147Z,6.30
2018-04-27T00:15:22.664Z,5.82
2018-04-27T00:16:25.212Z,5.80
2018-04-27T00:17:28.507Z,6.25
2018-04-27T00:18:31.048Z,5.57
2018-04-27T00:19:34.360Z,5.97
2018-04-27T00:20:36.885Z,6.72
2018-04-27T00:21:39.446Z,6.50
2018-04-27T00:22:41.968Z,6.40
2018-04-27T00:23:44.498Z,6.65
2018-04-27T00:24:47.775Z,6.10
2018-04-27T00:25:50.291Z,6.00
2018-04-27T00:26:52.844Z,5.70
2018-04-27T00:27:55.358Z,6.20
2018-04-27T00:28:57.916Z,6.53
2018-04-27T00:30:00.445Z,7.10
2018-04-27T00:31:02.957Z,6.45
2018-04-27T00:32:05.518Z,6.37
2018-04-27T00:33:08.047Z,6.55
2018-04-27T00:34:10.575Z,5.75
2018-04-27T00:35:13.864Z,7.07
2018-04-27T00:36:17.187Z,6.18
2018-04-27T00:37:19.707Z,6.45
2018-04-27T00:38:22.269Z,6.60
2018-04-27T00:39:24.793Z,6.30
2018-04-27T00:40:27.317Z,6.57
2018-04-27T00:41:30.605Z,6.62
2018-04-27T00:42:33.883Z,6.75
2018-04-27T00:43:37.204Z,6.43
2018-04-27T00:44:39.732Z,8.20
2018-04-27T00:45:43.019Z,7.70
2018-04-27T00:46:46.304Z,7.53
2018-04-27T00:47:49.591Z,7.30
2018-04-27T00:48:52.919Z,7.22
2018-04-27T00:49:55.479Z,7.30
2018-04-27T00:50:57.998Z,8.07
2018-04-27T00:52:01.290Z,8.07
2018-04-27T00:53:14.443Z,7.00
2018-04-27T00:54:16.959Z,6.55
2018-04-27T00:55:20.280Z,8.38
2018-04-27T00:56:22.801Z,7.40
2018-04-27T00:57:25.321Z,7.25
2018-04-27T00:58:27.848Z,7.40
2018-04-27T00:59:31.176Z,6.75
2018-04-27T01:00:33.704Z,7.37
2018-04-27T01:01:36.989Z,7.28
2018-04-27T01:02:40.273Z,7.95
2018-04-27T01:03:43.569Z,7.85
2018-04-27T01:04:46.128Z,8.38
2018-04-27T01:05:49.496Z,7.70
2018-04-27T01:06:51.990Z,7.50
2018-04-27T01:07:54.508Z,7.95
2018-04-27T01:08:57.026Z,8.23
2018-04-27T01:09:59.584Z,7.87
2018-04-27T01:11:02.098Z,8.30
2018-04-27T01:12:04.611Z,7.87
2018-04-27T01:13:07.136Z,8.57
2018-04-27T01:14:09.652Z,8.05
2018-04-27T01:15:12.208Z,8.70
2018-04-27T01:16:14.724Z,7.32
2018-04-27T01:17:17.281Z,7.78
2018-04-27T01:18:19.811Z,7.90
2018-04-27T01:19:22.327Z,8.00
2018-04-27T01:20:24.857Z,7.43
2018-04-27T01:21:27.368Z,7.50
2018-04-27T01:22:29.919Z,7.90
2018-04-27T01:23:32.486Z,7.43
2018-04-27T01:24:35.007Z,7.07
2018-04-27T01:25:37.519Z,7.45
2018-04-27T01:26:40.046Z,7.72
2018-04-27T01:27:42.565Z,7.50
2018-04-27T01:28:45.115Z,7.30
2018-04-27T01:29:47.639Z,7.03
2018-04-27T01:30:50.155Z,7.72
2018-04-27T01:31:52.720Z,8.50
2018-04-27T01:32:55.241Z,6.95
2018-04-27T01:33:57.759Z,8.23
2018-04-27T01:35:00.293Z,7.40
2018-04-27T01:36:02.811Z,7.47
2018-04-27T01:37:06.125Z,7.07
2018-04-27T01:38:08.635Z,7.90
2018-04-27T01:39:11.188Z,7.32
2018-04-27T01:40:13.699Z,7.35
2018-04-27T01:41:16.980Z,7.78
2018-04-27T01:42:20.265Z,7.22
2018-04-27T01:43:23.592Z,7.37
2018-04-27T01:44:26.148Z,8.07
2018-04-27T01:45:28.664Z,7.70
2018-04-27T01:46:31.961Z,7.55
2018-04-27T01:47:35.238Z,6.93
2018-04-27T01:48:37.757Z,6.95
2018-04-27T01:49:40.312Z,7.03
2018-04-27T01:50:42.885Z,6.97
2018-04-27T01:51:45.404Z,7.72
2018-04-27T01:52:48.684Z,7.12
2018-04-27T01:53:51.207Z,7.70
2018-04-27T01:54:53.718Z,7.43
2018-04-27T01:55:57.054Z,7.07
2018-04-27T01:56:59.574Z,6.75
2018-04-27T01:58:02.870Z,7.18
2018-04-27T01:59:06.164Z,7.53
2018-04-27T02:00:08.716Z,6.90
2018-04-27T02:01:11.991Z,7.68
2018-04-27T02:02:15.271Z,7.82
2018-04-27T02:03:18.554Z,7.50
2018-04-27T02:04:21.834Z,7.03
2018-04-27T02:05:24.388Z,7.55
2018-04-27T02:06:26.961Z,7.15
2018-04-27T02:07:29.473Z,8.10
2018-04-27T02:08:31.997Z,6.97
2018-04-27T02:09:34.525Z,7.37
2018-04-27T02:10:37.092Z,7.45
2018-04-27T02:11:39.616Z,7.15
2018-04-27T02:12:42.904Z,7.00
2018-04-27T02:13:46.182Z,7.30
2018-04-27T02:14:49.473Z,7.35
2018-04-27T02:15:52.027Z,7.18
2018-04-27T02:16:55.318Z,6.40
2018-04-27T02:17:58.600Z,7.87
2018-04-27T02:19:01.880Z,7.07
2018-04-27T02:20:05.163Z,7.45
2018-04-27T02:21:08.477Z,7.15
2018-04-27T02:22:11.005Z,7.50
2018-04-27T02:23:14.287Z,7.07
2018-04-27T02:24:16.791Z,7.25
2018-04-27T02:25:19.304Z,6.62
2018-04-27T02:26:21.853Z,7.30
2018-04-27T02:27:24.411Z,6.75
2018-04-27T02:28:26.931Z,6.78
2018-04-27T02:29:30.212Z,6.90
2018-04-27T02:30:33.492Z,6.10
2018-04-27T02:31:36.780Z,7.70
2018-04-27T02:32:40.099Z,7.20
2018-04-27T02:33:42.628Z,7.07
2018-04-27T02:34:45.912Z,6.80
2018-04-27T02:35:49.199Z,7.40
2018-04-27T02:36:51.731Z,6.87
2018-04-27T02:37:54.276Z,6.82
2018-04-27T02:38:56.800Z,8.23
2018-04-27T02:40:00.080Z,6.82
2018-04-27T02:41:03.376Z,7.65
2018-04-27T02:42:05.900Z,7.28
2018-04-27T02:43:08.466Z,8.38
2018-04-27T02:44:10.983Z,7.00
2018-04-27T02:45:13.500Z,7.05
2018-04-27T02:46:16.027Z,8.05
2018-04-27T02:47:18.540Z,8.25
2018-04-27T02:48:21.104Z,7.25
2018-04-27T02:49:23.616Z,7.78
2018-04-27T02:50:26.139Z,7.25
2018-04-27T02:51:28.660Z,7.40
2018-04-27T02:52:31.234Z,7.40
2018-04-27T02:53:33.760Z,7.55
2018-04-27T02:54:37.077Z,7.12
2018-04-27T02:55:39.584Z,7.40
2018-04-27T02:56:42.128Z,7.00
2018-04-27T02:57:44.661Z,8.10
2018-04-27T02:58:47.180Z,7.20
2018-04-27T02:59:49.731Z,7.12
2018-04-27T03:00:52.264Z,7.25
2018-04-27T03:01:54.828Z,7.97
2018-04-27T03:02:57.368Z,7.22
2018-04-27T03:04:00.647Z,7.00
2018-04-27T03:05:03.962Z,7.05
2018-04-27T03:06:06.497Z,8.30
2018-04-27T03:07:09.782Z,7.95
2018-04-27T03:08:13.099Z,7.57
2018-04-27T03:09:15.613Z,6.95
2018-04-27T03:10:18.155Z,7.40
2018-04-27T03:11:20.689Z,7.80
2018-04-27T03:12:23.208Z,6.70
2018-04-27T03:13:25.733Z,7.40
2018-04-27T03:14:28.289Z,7.78
2018-04-27T03:15:30.809Z,7.65
2018-04-27T03:16:33.329Z,7.25
2018-04-27T03:17:35.848Z,6.85
2018-04-27T03:18:38.384Z,7.97
2018-04-27T03:19:40.940Z,8.25
2018-04-27T03:20:43.451Z,12.30
2018-04-27T03:21:46.772Z,7.90
2018-04-27T03:22:49.288Z,8.02
2018-04-27T03:23:51.846Z,7.45
2018-04-27T03:24:54.348Z,8.05
2018-04-27T03:25:57.629Z,8.10
2018-04-27T03:27:00.956Z,7.85
2018-04-27T03:28:03.482Z,7.50
2018-04-27T03:29:06.772Z,8.35
2018-04-27T03:30:09.304Z,8.23
2018-04-27T03:31:11.848Z,7.22
2018-04-27T03:32:15.169Z,7.75
2018-04-27T03:33:18.450Z,7.53
2018-04-27T03:34:21.843Z,7.72
2018-04-27T03:35:24.327Z,7.57
2018-04-27T03:36:26.837Z,8.02
2018-04-27T03:37:29.353Z,7.57
2018-04-27T03:38:32.640Z,8.50
2018-04-27T03:39:35.179Z,8.35
2018-04-27T03:40:37.744Z,8.70
2018-04-27T03:41:40.296Z,8.80
2018-04-27T03:42:42.817Z,8.68
2018-04-27T03:43:45.340Z,9.32
2018-04-27T03:44:47.912Z,8.85
2018-04-27T03:45:50.439Z,8.65
2018-04-27T03:46:52.959Z,9.07
2018-04-27T03:47:56.244Z,8.88
2018-04-27T03:48:59.527Z,9.20
2018-04-27T03:50:02.842Z,8.52
2018-04-27T03:51:05.395Z,8.25
2018-04-27T03:52:07.918Z,10.38
2018-04-27T03:53:10.447Z,9.15
2018-04-27T03:54:13.005Z,10.05
2018-04-27T03:55:15.532Z,9.07
2018-04-27T03:56:18.856Z,7.90
2018-04-27T03:57:21.624Z,8.95
2018-04-27T03:58:24.141Z,9.05
2018-04-27T03:59:38.568Z,8.10
2018-04-27T04:00:52.987Z,7.85
2018-04-27T04:02:07.454Z,8.35
2018-04-27T04:03:21.769Z,7.53
2018-04-27T04:04:36.180Z,7.62
2018-04-27T04:05:39.493Z,8.25
2018-04-27T04:06:43.433Z,7.55
2018-04-27T04:07:45.946Z,8.25
2018-04-27T04:08:48.500Z,8.27
2018-04-27T04:09:51.793Z,8.02
2018-04-27T04:10:54.313Z,8.20
2018-04-27T04:11:56.832Z,8.77
2018-04-27T04:12:59.362Z,8.02
2018-04-27T04:14:01.928Z,9.38
2018-04-27T04:15:04.448Z,8.63
2018-04-27T04:16:06.959Z,8.95
2018-04-27T04:17:09.476Z,8.10
2018-04-27T04:18:12.033Z,9.80
2018-04-27T04:19:14.553Z,9.60
2018-04-27T04:20:17.081Z,9.65
2018-04-27T04:21:20.405Z,10.00
2018-04-27T04:22:22.933Z,9.00
2018-04-27T04:23:25.484Z,8.18
2018-04-27T04:24:28.002Z,9.10
2018-04-27T04:25:30.529Z,9.52
2018-04-27T04:26:33.043Z,9.63
2018-04-27T04:27:35.568Z,9.15
2018-04-27T04:28:38.115Z,9.00
2018-04-27T04:29:40.632Z,9.55
2018-04-27T04:30:43.201Z,8.85
2018-04-27T04:31:45.727Z,8.43
2018-04-27T04:32:48.260Z,8.00
2018-04-27T04:33:51.556Z,8.43
2018-04-27T04:34:54.136Z,9.00
2018-04-27T04:35:57.423Z,9.35
2018-04-27T04:36:59.939Z,8.48
2018-04-27T04:38:03.223Z,8.63
2018-04-27T04:39:05.736Z,7.25
2018-04-27T04:40:08.260Z,7.95
2018-04-27T04:41:11.588Z,8.43
2018-04-27T04:42:14.109Z,8.32
2018-04-27T04:43:17.403Z,8.60
2018-04-27T04:44:20.687Z,8.35
2018-04-27T04:45:24.007Z,8.25
2018-04-27T04:46:26.526Z,8.35
2018-04-27T04:47:29.041Z,8.65
2018-04-27T04:48:31.564Z,8.20
2018-04-27T04:49:34.896Z,8.40
2018-04-27T04:50:37.414Z,9.55
2018-04-27T04:51:40.699Z,8.00
2018-04-27T04:52:44.074Z,8.35
2018-04-27T04:53:46.544Z,7.60
2018-04-27T04:54:49.856Z,8.88
2018-04-27T04:55:52.384Z,7.35
2018-04-27T04:56:54.951Z,8.20
2018-04-27T04:57:57.464Z,7.45
2018-04-27T04:58:59.976Z,7.60
2018-04-27T05:00:02.535Z,7.80
2018-04-27T05:01:05.054Z,7.97
2018-04-27T05:02:07.578Z,8.15
2018-04-27T05:03:10.095Z,7.32
2018-04-27T05:04:12.614Z,7.68
2018-04-27T05:05:15.180Z,7.57
2018-04-27T05:06:17.700Z,8.50
2018-04-27T05:07:20.224Z,7.10
2018-04-27T05:08:23.540Z,7.78
2018-04-27T05:09:26.056Z,7.70
2018-04-27T05:10:28.650Z,8.15
2018-04-27T05:11:31.163Z,7.43
2018-04-27T05:12:33.696Z,7.82
2018-04-27T05:13:36.210Z,7.05
2018-04-27T05:14:38.726Z,7.37
2018-04-27T05:15:41.235Z,6.87
2018-04-27T05:16:43.788Z,7.15
2018-04-27T05:17:46.316Z,7.00
2018-04-27T05:18:58.704Z,6.53
2018-04-27T05:20:01.506Z,7.05
2018-04-27T05:21:04.021Z,6.80
2018-04-27T05:22:06.595Z,6.45
2018-04-27T05:23:09.111Z,7.07
2018-04-27T05:24:11.643Z,6.97
2018-04-27T05:25:14.928Z,6.57
2018-04-27T05:26:18.216Z,7.28
2018-04-27T05:27:22.217Z,6.72
2018-04-27T05:28:24.750Z,7.45
2018-04-27T05:29:27.273Z,7.47
2018-04-27T05:30:29.795Z,7.10
2018-04-27T05:31:32.372Z,7.20
2018-04-27T05:32:35.656Z,6.62
2018-04-27T05:33:38.946Z,7.50
2018-04-27T05:34:42.236Z,7.82
2018-04-27T05:35:44.755Z,7.93
2018-04-27T05:36:47.301Z,8.23
2018-04-27T05:37:49.821Z,7.65
2018-04-27T05:38:53.113Z,7.90
2018-04-27T05:39:56.403Z,7.95
2018-04-27T05:40:58.924Z,8.45
2018-04-27T05:42:01.476Z,8.35
2018-04-27T05:43:03.991Z,9.15
2018-04-27T05:44:07.280Z,9.07
2018-04-27T05:45:09.804Z,9.00
2018-04-27T05:46:12.327Z,8.77
2018-04-27T05:47:14.880Z,8.88
2018-04-27T05:48:17.422Z,7.87
2018-04-27T05:49:20.767Z,8.63
2018-04-27T05:50:23.301Z,7.65
2018-04-27T05:51:25.810Z,8.05
2018-04-27T05:52:28.332Z,7.50
2018-04-27T05:53:30.860Z,8.57
2018-04-27T05:54:33.418Z,7.95
2018-04-27T05:55:35.996Z,7.45
2018-04-27T05:56:39.261Z,7.30
2018-04-27T05:57:41.783Z,7.03
2018-04-27T05:58:44.311Z,6.82
2018-04-27T05:59:46.875Z,7.12
2018-04-27T06:00:49.387Z,7.40
2018-04-27T06:01:51.906Z,7.53
2018-04-27T06:02:54.524Z,8.23
2018-04-27T06:04:08.889Z,7.80
2018-04-27T06:05:11.453Z,7.35
2018-04-27T06:06:13.984Z,7.65
2018-04-27T06:07:16.505Z,7.55
2018-04-27T06:08:19.027Z,7.72
2018-04-27T06:09:21.539Z,7.82
2018-04-27T06:10:24.108Z,8.57
2018-04-27T06:11:26.623Z,7.62
2018-04-27T06:12:29.159Z,8.32
2018-04-27T06:13:31.681Z,6.93
2018-04-27T06:14:34.224Z,7.20
2018-04-27T06:15:36.795Z,7.57
2018-04-27T06:16:39.315Z,7.80
2018-04-27T06:17:41.912Z,8.05
2018-04-27T06:18:45.196Z,7.50
2018-04-27T06:19:48.476Z,8.25
2018-04-27T06:20:51.800Z,8.02
2018-04-27T06:21:54.327Z,8.10
2018-04-27T06:22:57.613Z,7.93
2018-04-27T06:24:00.902Z,7.53
2018-04-27T06:25:03.416Z,8.10
2018-04-27T06:26:05.971Z,7.25
2018-04-27T06:27:08.500Z,7.55
2018-04-27T06:28:11.021Z,7.90
2018-04-27T06:29:13.579Z,8.05
2018-04-27T06:30:16.111Z,8.70
2018-04-27T06:31:18.667Z,7.70
2018-04-27T06:32:21.196Z,7.22
2018-04-27T06:33:24.490Z,8.48
2018-04-27T06:34:27.013Z,8.00
2018-04-27T06:35:29.546Z,7.68
2018-04-27T06:36:32.101Z,7.53
2018-04-27T06:37:35.391Z,6.95
2018-04-27T06:38:37.904Z,7.93
2018-04-27T06:39:40.434Z,7.05
2018-04-27T06:40:42.990Z,7.65
2018-04-27T06:41:45.531Z,8.70
2018-04-27T06:42:48.044Z,6.80
2018-04-27T06:43:50.563Z,7.30
2018-04-27T06:44:53.084Z,7.18
2018-04-27T06:45:55.676Z,8.32
2018-04-27T06:46:58.191Z,8.13
2018-04-27T06:48:00.721Z,7.35
2018-04-27T06:49:03.258Z,6.75
2018-04-27T06:50:05.789Z,7.20
2018-04-27T06:51:08.344Z,7.32
2018-04-27T06:52:11.627Z,6.95
2018-04-27T06:53:14.916Z,8.02
2018-04-27T06:54:18.223Z,7.07
2018-04-27T06:55:20.773Z,7.43
2018-04-27T06:56:23.295Z,7.22
2018-04-27T06:57:25.819Z,6.75
2018-04-27T06:58:28.375Z,7.00
2018-04-27T06:59:30.986Z,7.18
2018-04-27T07:00:34.211Z,6.80
2018-04-27T07:01:37.487Z,5.90
2018-04-27T07:02:40.767Z,5.97
2018-04-27T07:03:44.078Z,5.85
2018-04-27T07:04:46.602Z,5.40
2018-04-27T07:05:49.127Z,5.60
2018-04-27T07:06:51.704Z,5.15
2018-04-27T07:07:54.220Z,4.30
2018-04-27T07:08:57.520Z,5.25
2018-04-27T07:10:00.071Z,5.05
2018-04-27T07:11:03.390Z,4.53
2018-04-27T07:12:05.912Z,4.15
2018-04-27T07:13:08.435Z,4.28
2018-04-27T07:14:10.985Z,4.22
2018-04-27T07:15:13.492Z,4.07
2018-04-27T07:16:16.040Z,4.40
2018-04-27T07:17:18.566Z,4.28
2018-04-27T07:18:21.115Z,5.45
2018-04-27T07:19:24.413Z,3.70
2018-04-27T07:20:27.701Z,3.95
2018-04-27T07:21:30.238Z,4.30
2018-04-27T07:22:32.800Z,3.83
2018-04-27T07:23:35.333Z,4.00
2018-04-27T07:24:37.852Z,4.10
2018-04-27T07:25:41.147Z,4.03
2018-04-27T07:26:43.674Z,3.70
2018-04-27T07:27:46.233Z,4.10
2018-04-27T07:28:48.759Z,4.12
2018-04-27T07:29:51.298Z,3.55
2018-04-27T07:30:54.587Z,3.80
2018-04-27T07:31:57.881Z,3.70
2018-04-27T07:33:00.440Z,3.45
2018-04-27T07:34:03.744Z,4.40
2018-04-27T07:35:06.264Z,3.72
2018-04-27T07:36:08.825Z,3.83
2018-04-27T07:37:11.353Z,3.97
2018-04-27T07:38:13.905Z,3.03
2018-04-27T07:39:16.433Z,3.75
2018-04-27T07:40:18.974Z,3.20
2018-04-27T07:41:21.498Z,3.22
2018-04-27T07:42:24.024Z,3.37
2018-04-27T07:43:26.588Z,3.35
2018-04-27T07:44:29.115Z,3.85
2018-04-27T07:45:31.681Z,3.78
2018-04-27T07:46:34.208Z,2.80
2018-04-27T07:47:37.551Z,3.33
2018-04-27T07:48:40.056Z,3.45
2018-04-27T07:49:43.357Z,3.40
2018-04-27T07:50:45.911Z,3.22
2018-04-27T07:51:49.198Z,2.60
2018-04-27T07:52:52.488Z,3.83
2018-04-27T07:53:55.779Z,3.87
2018-04-27T07:54:58.316Z,3.15
2018-04-27T07:56:00.899Z,3.72
2018-04-27T07:57:04.188Z,3.15
2018-04-27T07:58:06.725Z,4.00
2018-04-27T07:59:09.248Z,3.08
2018-04-27T08:00:11.766Z,3.25
2018-04-27T08:01:14.349Z,3.25
2018-04-27T08:02:17.666Z,2.90
2018-04-27T08:03:20.188Z,3.33
2018-04-27T08:04:22.703Z,3.60
2018-04-27T08:05:25.225Z,3.53
2018-04-27T08:06:28.552Z,3.87
2018-04-27T08:07:31.083Z,2.90
2018-04-27T08:08:34.371Z,4.50
2018-04-27T08:09:37.659Z,3.33
2018-04-27T08:10:40.232Z,3.55
2018-04-27T08:11:42.759Z,2.97
2018-04-27T08:12:45.320Z,3.47
2018-04-27T08:13:47.840Z,3.30
2018-04-27T08:14:50.356Z,3.60
2018-04-27T08:15:52.927Z,3.58
2018-04-27T08:16:55.455Z,3.05
2018-04-27T08:17:57.986Z,3.17
2018-04-27T08:19:01.264Z,4.00
2018-04-27T08:20:04.577Z,3.97
2018-04-27T08:21:07.140Z,3.25
2018-04-27T08:22:09.658Z,2.92
2018-04-27T08:23:12.189Z,3.55
2018-04-27T08:24:14.727Z,3.70
2018-04-27T08:25:17.257Z,3.80
2018-04-27T08:26:29.800Z,2.92
2018-04-27T08:27:32.324Z,3.15
2018-04-27T08:28:36.317Z,2.92
2018-04-27T08:29:38.855Z,3.78
2018-04-27T08:30:41.381Z,3.33
2018-04-27T08:31:44.719Z,2.70
2018-04-27T08:32:47.241Z,3.00
2018-04-27T08:33:49.781Z,3.17
2018-04-27T08:34:52.312Z,3.25
2018-04-27T08:35:54.846Z,2.65
2018-04-27T08:36:57.404Z,2.95
2018-04-27T08:37:59.957Z,2.90
2018-04-27T08:39:03.256Z,2.78
2018-04-27T08:40:05.782Z,3.83
2018-04-27T08:41:08.323Z,3.33
2018-04-27T08:42:10.874Z,3.28
2018-04-27T08:43:13.432Z,2.72
2018-04-27T08:44:15.979Z,2.08
2018-04-27T08:45:19.267Z,3.10
2018-04-27T08:46:21.785Z,2.10
2018-04-27T08:47:24.334Z,2.90
2018-04-27T08:48:26.894Z,3.08
2018-04-27T08:49:29.414Z,1.87
2018-04-27T08:50:32.736Z,2.22
2018-04-27T08:51:35.251Z,2.42
2018-04-27T08:52:37.808Z,2.50
2018-04-27T08:53:40.324Z,2.30
2018-04-27T08:54:42.844Z,2.10
2018-04-27T08:55:45.368Z,2.00
2018-04-27T08:56:47.894Z,1.80
2018-04-27T08:57:51.239Z,2.25
2018-04-27T08:58:53.779Z,2.08
2018-04-27T08:59:56.297Z,1.87
2018-04-27T09:00:58.816Z,2.03
2018-04-27T09:02:01.352Z,1.20
2018-04-27T09:03:03.920Z,1.83
2018-04-27T09:04:07.200Z,1.58
2018-04-27T09:05:10.522Z,1.65
2018-04-27T09:06:13.056Z,1.80
2018-04-27T09:07:16.345Z,2.00
2018-04-27T09:08:18.881Z,1.90
2018-04-27T09:09:21.397Z,1.70
2018-04-27T09:10:23.958Z,1.50
2018-04-27T09:11:26.524Z,1.90
2018-04-27T09:12:29.059Z,2.05
2018-04-27T09:13:32.351Z,1.37
2018-04-27T09:14:35.647Z,1.62
2018-04-27T09:15:38.165Z,1.60
2018-04-27T09:16:40.717Z,1.62
2018-04-27T09:17:43.238Z,1.30
2018-04-27T09:18:46.520Z,1.95
2018-04-27T09:19:49.805Z,1.55
2018-04-27T09:20:53.090Z,1.48
2018-04-27T09:21:56.419Z,2.47
2018-04-27T09:24:08.683Z,1.75
2018-04-27T09:25:11.205Z,1.60
2018-04-27T09:26:13.800Z,1.83
2018-04-27T09:27:16.310Z,1.67
2018-04-27T09:28:18.839Z,2.00
2018-04-27T09:29:22.128Z,1.73
2018-04-27T09:30:25.417Z,1.23
2018-04-27T09:31:27.927Z,1.90
2018-04-27T09:32:30.495Z,1.87
2018-04-27T09:33:33.020Z,1.65
2018-04-27T09:34:35.552Z,1.62
2018-04-27T09:35:38.108Z,1.65
2018-04-27T09:36:40.627Z,2.30
2018-04-27T09:37:43.148Z,2.80
2018-04-27T09:38:45.704Z,2.35
2018-04-27T09:39:48.222Z,2.30
2018-04-27T09:40:50.742Z,2.10
2018-04-27T09:41:53.356Z,1.65
2018-04-27T09:42:55.856Z,2.08
2018-04-27T09:43:58.384Z,1.98
2018-04-27T09:45:00.906Z,1.65
2018-04-27T09:46:03.465Z,1.55
2018-04-27T09:47:05.993Z,1.85
2018-04-27T09:48:08.518Z,1.70
2018-04-27T09:49:11.800Z,1.90
2018-04-27T09:50:15.099Z,3.00
2018-04-27T09:51:17.652Z,1.95
2018-04-27T09:52:20.945Z,2.00
2018-04-27T09:53:24.241Z,1.17
2018-04-27T09:54:26.762Z,1.60
2018-04-27T09:55:29.316Z,1.85
2018-04-27T09:56:31.833Z,1.70
2018-04-27T09:57:34.417Z,2.72
2018-04-27T09:58:37.709Z,1.90
2018-04-27T09:59:40.229Z,2.08
2018-04-27T10:00:42.748Z,1.60
2018-04-27T10:01:45.275Z,2.28
2018-04-27T10:02:48.555Z,1.80
2018-04-27T10:03:51.900Z,2.42
2018-04-27T10:04:54.419Z,1.52
2018-04-27T10:05:56.943Z,1.77
2018-04-27T10:06:59.473Z,2.08
2018-04-27T10:08:02.005Z,1.80
2018-04-27T10:09:05.329Z,1.50
2018-04-27T10:10:07.848Z,1.90
2018-04-27T10:11:11.143Z,1.90
2018-04-27T10:12:14.469Z,2.15
2018-04-27T10:13:16.999Z,2.15
2018-04-27T10:14:19.528Z,1.85
2018-04-27T10:15:22.087Z,2.45
2018-04-27T10:16:24.615Z,2.25
2018-04-27T10:17:27.124Z,2.08
2018-04-27T10:18:29.651Z,2.10
2018-04-27T10:19:33.920Z,2.00
2018-04-27T10:20:37.246Z,2.20
2018-04-27T10:21:39.763Z,2.05
2018-04-27T10:22:43.087Z,2.20
2018-04-27T10:23:45.612Z,2.12
2018-04-27T10:24:48.139Z,1.90
2018-04-27T10:25:50.695Z,1.48
2018-04-27T10:26:53.218Z,1.55
2018-04-27T10:27:56.508Z,2.00
2018-04-27T10:28:59.788Z,1.70
2018-04-27T10:30:03.081Z,2.15
2018-04-27T10:31:06.402Z,2.33
2018-04-27T10:32:08.911Z,2.05
2018-04-27T10:33:11.441Z,1.80
2018-04-27T10:34:13.968Z,2.10
2018-04-27T10:35:16.518Z,2.20
2018-04-27T10:36:19.804Z,1.80
2018-04-27T10:37:23.101Z,1.77
2018-04-27T10:38:26.419Z,1.80
2018-04-27T10:39:28.931Z,2.03
2018-04-27T10:40:32.253Z,1.83
2018-04-27T10:41:34.820Z,1.90
2018-04-27T10:42:37.342Z,2.05
2018-04-27T10:43:39.851Z,1.55
2018-04-27T10:44:42.375Z,1.92
2018-04-27T10:45:44.896Z,2.45
2018-04-27T10:46:47.461Z,1.92
2018-04-27T10:47:49.988Z,1.73
2018-04-27T10:48:53.274Z,2.10
2018-04-27T10:49:56.563Z,1.70
2018-04-27T10:50:59.848Z,1.33
2018-04-27T10:52:02.423Z,1.92
2018-04-27T10:53:04.945Z,1.85
2018-04-27T10:54:07.483Z,1.80
2018-04-27T10:55:10.005Z,1.70
2018-04-27T10:56:13.329Z,2.22
2018-04-27T10:57:15.860Z,1.30
2018-04-27T10:58:19.143Z,1.30
2018-04-27T10:59:22.429Z,1.80
2018-04-27T11:00:25.715Z,1.80
2018-04-27T11:01:29.031Z,1.80
2018-04-27T11:02:31.575Z,2.17
2018-04-27T11:03:34.102Z,1.80
2018-04-27T11:04:36.652Z,1.50
2018-04-27T11:05:39.173Z,1.60
2018-04-27T11:06:41.695Z,1.77
2018-04-27T11:07:44.225Z,2.50
2018-04-27T11:08:46.898Z,2.20
2018-04-27T11:09:49.408Z,2.05
2018-04-27T11:10:51.927Z,1.87
2018-04-27T11:11:54.448Z,1.65
2018-04-27T11:12:57.751Z,1.65
2018-04-27T11:14:00.302Z,2.10
2018-04-27T11:15:03.625Z,2.00
2018-04-27T11:16:06.184Z,2.05
2018-04-27T11:17:08.724Z,1.75
2018-04-27T11:18:12.009Z,2.10
2018-04-27T11:19:15.300Z,1.73
2018-04-27T11:20:18.668Z,1.75
2018-04-27T11:21:21.174Z,2.10
2018-04-27T11:22:23.687Z,2.30
2018-04-27T11:23:26.200Z,2.10
2018-04-27T11:24:28.730Z,2.20
2018-04-27T11:25:35.911Z,2.60
2018-04-27T11:26:39.248Z,2.00
2018-04-27T11:27:41.776Z,2.00
2018-04-27T11:28:44.297Z,2.10
2018-04-27T11:29:46.831Z,1.73
2018-04-27T11:30:49.367Z,2.05
2018-04-27T11:31:52.700Z,2.33
2018-04-27T11:32:55.214Z,1.90
2018-04-27T11:33:58.496Z,2.00
2018-04-27T11:35:01.785Z,2.22
2018-04-27T11:36:05.080Z,1.90
2018-04-27T11:37:07.639Z,2.10
2018-04-27T11:38:10.161Z,2.03
2018-04-27T11:39:12.685Z,2.05
2018-04-27T11:40:15.226Z,2.50
2018-04-27T11:41:18.513Z,2.47
2018-04-27T11:42:21.093Z,1.90
2018-04-27T11:43:23.610Z,1.67
2018-04-27T11:44:26.128Z,2.17
2018-04-27T11:45:28.656Z,2.67
2018-04-27T11:46:31.177Z,1.80
2018-04-27T11:47:33.757Z,1.90
2018-04-27T11:48:36.281Z,2.12
2018-04-27T11:49:39.560Z,2.58
2018-04-27T11:50:42.842Z,2.12
2018-04-27T11:51:46.140Z,2.40
2018-04-27T11:52:48.691Z,1.92
2018-04-27T11:53:51.979Z,2.65
2018-04-27T11:54:55.300Z,2.53
2018-04-27T11:55:57.819Z,2.37
2018-04-27T11:57:01.103Z,2.37
2018-04-27T11:58:04.432Z,2.12
2018-04-27T11:59:06.956Z,2.12
2018-04-27T12:00:10.247Z,2.00
2018-04-27T12:01:13.528Z,1.70
2018-04-27T12:02:16.830Z,2.30
2018-04-27T12:03:19.390Z,2.72
2018-04-27T12:04:21.954Z,1.70
2018-04-27T12:05:25.236Z,2.00
2018-04-27T12:06:29.279Z,1.75
2018-04-27T12:07:31.796Z,2.03
2018-04-27T12:08:35.074Z,2.28
2018-04-27T12:09:38.362Z,1.87
2018-04-27T12:10:41.666Z,1.60
2018-04-27T12:11:44.235Z,2.05
2018-04-27T12:12:46.783Z,1.58
2018-04-27T12:13:50.069Z,1.80
2018-04-27T12:14:53.351Z,1.67
2018-04-27T12:15:56.657Z,1.83
2018-04-27T12:16:59.174Z,1.85
2018-04-27T12:18:01.751Z,2.05
2018-04-27T12:19:04.273Z,1.33
2018-04-27T12:20:06.832Z,1.83
2018-04-27T12:21:09.356Z,1.80
2018-04-27T12:22:12.643Z,1.60
2018-04-27T12:23:15.924Z,2.17
2018-04-27T12:24:19.250Z,1.70
2018-04-27T12:25:21.799Z,1.60
2018-04-27T12:26:24.324Z,1.40
2018-04-27T12:27:26.843Z,2.20
2018-04-27T12:28:29.400Z,2.30
2018-04-27T12:29:31.933Z,2.20
2018-04-27T12:30:34.463Z,1.62
2018-04-27T12:31:37.079Z,1.80
2018-04-27T12:32:39.565Z,1.85
2018-04-27T12:33:42.081Z,1.80
2018-04-27T12:34:44.614Z,1.65
2018-04-27T12:35:47.138Z,2.33
2018-04-27T12:36:50.562Z,2.00
2018-04-27T12:37:53.115Z,1.92
2018-04-27T12:38:55.725Z,1.65
2018-04-27T12:39:58.746Z,1.87
2018-04-27T12:41:02.035Z,1.35
2018-04-27T12:42:04.608Z,1.55
2018-04-27T12:43:07.128Z,1.50
2018-04-27T12:44:09.700Z,1.80
2018-04-27T12:45:12.224Z,1.52
2018-04-27T12:46:14.751Z,1.95
2018-04-27T12:47:18.056Z,2.05
2018-04-27T12:48:20.601Z,2.00
2018-04-27T12:49:23.917Z,2.33
2018-04-27T12:50:26.443Z,1.70
2018-04-27T12:51:29.758Z,1.85
2018-04-27T12:52:32.279Z,2.00
2018-04-27T12:53:34.812Z,2.30
2018-04-27T12:54:37.367Z,1.83
2018-04-27T12:55:39.926Z,1.40
2018-04-27T12:56:42.448Z,1.60
2018-04-27T12:57:44.977Z,1.37
2018-04-27T12:58:47.504Z,1.98
2018-04-27T12:59:50.801Z,1.80
2018-04-27T13:00:53.356Z,1.40
2018-04-27T13:01:56.653Z,1.58
2018-04-27T13:02:59.176Z,1.50
2018-04-27T13:04:01.712Z,1.52
2018-04-27T13:05:04.240Z,1.60
2018-04-27T13:06:07.565Z,1.87
2018-04-27T13:07:10.080Z,1.70
2018-04-27T13:08:13.398Z,2.25
2018-04-27T13:09:15.916Z,2.03
2018-04-27T13:10:18.439Z,1.87
2018-04-27T13:11:20.982Z,1.50
2018-04-27T13:12:23.566Z,1.62
2018-04-27T13:13:26.087Z,1.87
2018-04-27T13:14:28.612Z,1.55
2018-04-27T13:15:31.127Z,1.42
2018-04-27T13:16:34.457Z,2.12
2018-04-27T13:17:36.976Z,1.55
2018-04-27T13:18:40.260Z,1.37
2018-04-27T13:19:43.560Z,1.50
2018-04-27T13:20:46.851Z,1.58
2018-04-27T13:21:49.427Z,2.03
2018-04-27T13:22:51.947Z,2.20
2018-04-27T13:23:54.478Z,1.90
2018-04-27T13:24:56.996Z,2.72
2018-04-27T13:26:00.320Z,1.33
2018-04-27T13:27:02.849Z,1.20
2018-04-27T13:28:06.135Z,1.73
2018-04-27T13:29:09.414Z,1.40
2018-04-27T13:30:12.698Z,1.60
2018-04-27T13:31:16.024Z,1.73
2018-04-27T13:32:18.545Z,1.95
2018-04-27T13:33:21.829Z,1.60
2018-04-27T13:34:25.154Z,1.60
2018-04-27T13:35:27.669Z,1.65
2018-04-27T13:36:30.243Z,1.52
2018-04-27T13:37:33.528Z,1.70
2018-04-27T13:38:36.815Z,1.85
2018-04-27T13:39:40.105Z,1.20
2018-04-27T13:40:43.389Z,2.20
2018-04-27T13:41:45.949Z,1.48
2018-04-27T13:42:49.267Z,1.80
2018-04-27T13:43:51.787Z,2.22
2018-04-27T13:44:54.311Z,2.20
2018-04-27T13:45:56.833Z,1.80
2018-04-27T13:47:00.174Z,1.58
2018-04-27T13:48:02.702Z,1.60
2018-04-27T13:49:05.231Z,1.50
2018-04-27T13:50:07.786Z,1.40
2018-04-27T13:51:10.357Z,1.80
2018-04-27T13:52:12.919Z,2.17
2018-04-27T13:53:15.440Z,1.35
2018-04-27T13:54:17.980Z,1.70
2018-04-27T13:55:21.260Z,1.42
2018-04-27T13:56:24.548Z,1.62
2018-04-27T13:57:27.868Z,1.70
2018-04-27T13:58:30.399Z,2.17